createdAt,value
2023-12-19T00:02:05.164Z,98196.19
2023-12-19T00:07:08.400Z,98196.13
2023-12-19T00:12:13.138Z,98190.81
2023-12-19T00:17:16.454Z,98188.53
2023-12-19T00:22:19.735Z,98187.00
2023-12-19T00:27:24.611Z,98173.13
2023-12-19T00:32:28.301Z,98166.13
2023-12-19T00:37:31.896Z,98159.94
2023-12-19T00:42:36.782Z,98153.19
2023-12-19T00:47:40.457Z,98149.25
2023-12-19T00:52:44.372Z,98136.84
2023-12-19T00:57:49.307Z,98136.44
2023-12-19T01:02:53.087Z,98134.59
2023-12-19T01:07:56.511Z,98132.94
2023-12-19T01:13:01.269Z,98125.69
2023-12-19T01:18:05.252Z,98125.91
2023-12-19T01:23:08.728Z,98129.41
2023-12-19T01:28:14.313Z,98121.75
2023-12-19T01:33:17.738Z,98123.78
2023-12-19T01:38:21.141Z,98126.28
2023-12-19T01:43:25.900Z,98118.75
2023-12-19T01:48:29.497Z,98116.59
2023-12-19T01:53:33.386Z,98119.38
2023-12-19T01:58:39.123Z,98108.66
2023-12-19T02:03:43.661Z,98104.34
2023-12-19T02:08:47.107Z,98098.84
2023-12-19T02:13:51.854Z,98098.72
2023-12-19T02:19:05.242Z,98098.56
2023-12-19T02:24:10.183Z,98089.47
2023-12-19T02:29:13.782Z,98094.72
2023-12-19T02:34:17.301Z,98089.66
2023-12-19T02:39:22.568Z,98078.59
2023-12-19T02:44:25.879Z,98085.09
2023-12-19T02:49:29.386Z,98077.06
2023-12-19T02:54:34.159Z,98052.34
2023-12-19T02:59:37.477Z,98055.13
2023-12-19T03:04:41.149Z,98060.00
2023-12-19T03:09:46.037Z,98055.25
2023-12-19T03:14:49.370Z,98035.97
2023-12-19T03:19:52.759Z,98031.41
2023-12-19T03:24:59.044Z,98036.31
2023-12-19T03:30:02.514Z,98030.84
2023-12-19T03:35:06.925Z,98027.44
2023-12-19T03:40:11.971Z,98024.44
2023-12-19T03:45:16.064Z,98020.19
2023-12-19T03:50:19.414Z,98019.22
2023-12-19T03:55:24.515Z,97999.56
2023-12-19T04:00:27.796Z,97991.72
2023-12-19T04:05:31.167Z,97988.59
2023-12-19T04:10:36.462Z,97989.41
2023-12-19T04:15:40.290Z,97995.56
2023-12-19T04:20:44.103Z,97990.03
2023-12-19T04:25:49.379Z,97989.75
2023-12-19T04:30:52.650Z,98000.09
2023-12-19T04:35:56.060Z,97992.91
2023-12-19T04:41:00.854Z,97980.91
2023-12-19T04:46:04.304Z,97977.53
2023-12-19T04:51:07.568Z,97964.38
2023-12-19T04:56:12.804Z,97960.25
2023-12-19T05:01:17.992Z,97972.44
2023-12-19T05:06:21.347Z,97961.00
2023-12-19T05:11:26.244Z,97967.69
2023-12-19T05:16:29.592Z,97954.00
2023-12-19T05:21:38.579Z,97960.22
2023-12-19T05:26:43.434Z,97960.50
2023-12-19T05:31:46.989Z,97967.03
2023-12-19T05:36:50.405Z,97974.94
2023-12-19T05:41:57.779Z,97978.06
2023-12-19T05:47:01.108Z,97983.50
2023-12-19T05:52:04.600Z,97992.66
2023-12-19T05:57:09.359Z,97985.31
2023-12-19T06:02:13.081Z,97973.59
2023-12-19T06:07:16.638Z,97974.72
2023-12-19T06:12:21.869Z,97986.00
2023-12-19T06:17:25.271Z,97988.16
2023-12-19T06:22:29.357Z,97989.22
2023-12-19T06:27:34.894Z,97998.69
2023-12-19T06:32:38.656Z,97999.25
2023-12-19T06:37:42.173Z,97988.38
2023-12-19T06:42:49.867Z,97999.38
2023-12-19T06:47:53.381Z,97998.00
2023-12-19T06:52:56.828Z,98002.94
2023-12-19T06:58:01.767Z,98003.63
2023-12-19T07:03:05.667Z,97996.47
2023-12-19T07:08:09.242Z,97998.84
2023-12-19T07:13:14.446Z,98001.13
2023-12-19T07:18:17.954Z,97984.47
2023-12-19T07:23:21.587Z,97994.19
2023-12-19T07:28:26.572Z,97993.59
2023-12-19T07:33:30.001Z,97990.59
2023-12-19T07:38:35.715Z,97978.06
2023-12-19T07:43:41.170Z,97976.88
2023-12-19T07:48:44.772Z,97967.59
2023-12-19T07:53:48.138Z,97970.28
2023-12-19T07:58:53.684Z,97976.00
2023-12-19T08:03:56.915Z,97968.19
2023-12-19T08:09:00.084Z,97967.97
2023-12-19T08:14:04.643Z,97967.88
2023-12-19T08:19:07.950Z,97963.72
2023-12-19T08:24:11.262Z,97962.63
2023-12-19T08:29:16.876Z,97951.25
2023-12-19T08:34:20.637Z,97939.56
2023-12-19T08:39:23.900Z,97926.53
2023-12-19T08:44:28.975Z,97918.56
2023-12-19T08:49:32.236Z,97923.25
2023-12-19T08:54:35.707Z,97918.75
2023-12-19T08:59:40.516Z,97910.50
2023-12-19T09:04:44.490Z,97905.47
2023-12-19T09:09:48.342Z,97887.94
2023-12-19T09:14:52.933Z,97894.75
2023-12-19T09:19:56.946Z,97878.97
2023-12-19T09:25:00.658Z,97891.13
2023-12-19T09:30:05.837Z,97876.53
2023-12-19T09:35:11.914Z,97884.84
2023-12-19T09:40:16.681Z,97882.13
2023-12-19T09:45:21.262Z,97878.00
2023-12-19T09:50:26.605Z,97861.06
2023-12-19T09:55:30.471Z,97858.34
2023-12-19T10:00:37.902Z,97856.13
2023-12-19T10:05:42.003Z,97849.50
2023-12-19T10:10:52.701Z,97835.00
2023-12-19T10:16:29.476Z,97839.97
2023-12-19T10:21:30.972Z,97835.16
2023-12-19T10:26:35.317Z,97832.91
2023-12-19T10:31:40.005Z,97816.31
2023-12-19T10:36:43.411Z,97807.28
2023-12-19T10:41:46.886Z,97791.97
2023-12-19T10:46:51.554Z,97779.75
2023-12-19T10:51:58.889Z,97762.13
2023-12-19T10:57:06.826Z,97764.00
2023-12-19T11:02:22.978Z,97753.34
2023-12-19T11:07:28.921Z,97731.56
2023-12-19T11:12:32.472Z,97722.28
2023-12-19T11:17:42.534Z,97723.88
2023-12-19T11:22:53.524Z,97715.72
2023-12-19T11:27:57.934Z,97683.13
2023-12-19T11:33:02.644Z,97686.97
2023-12-19T11:38:30.412Z,97678.44
2023-12-19T11:43:55.600Z,97653.13
2023-12-19T11:49:00.641Z,97645.69
2023-12-19T11:54:04.484Z,97652.09
2023-12-19T11:59:09.480Z,97640.09
2023-12-19T12:04:14.517Z,97631.34
2023-12-19T12:09:20.593Z,97614.50
2023-12-19T12:14:23.867Z,97637.03
2023-12-19T12:19:31.213Z,97622.19
2023-12-19T12:24:41.916Z,97619.44
2023-12-19T12:29:49.111Z,97600.69
2023-12-19T12:34:54.011Z,97591.53
2023-12-19T12:40:05.748Z,97589.50
2023-12-19T12:45:09.931Z,97579.28
2023-12-19T12:50:14.574Z,97581.34
2023-12-19T12:55:19.345Z,97563.72
2023-12-19T13:00:26.939Z,97558.16
2023-12-19T13:05:32.915Z,97532.34
2023-12-19T13:10:37.013Z,97524.47
2023-12-19T13:15:40.165Z,97518.72
2023-12-19T13:20:44.738Z,97494.03
2023-12-19T13:25:48.227Z,97494.09
2023-12-19T13:30:52.872Z,97491.81
2023-12-19T13:35:58.025Z,97477.47
2023-12-19T13:41:02.051Z,97483.22
2023-12-19T13:46:05.864Z,97482.81
2023-12-19T13:51:11.610Z,97465.66
2023-12-19T13:56:15.086Z,97464.00
2023-12-19T14:01:18.420Z,97466.47
2023-12-19T14:06:23.966Z,97464.16
2023-12-19T14:11:27.254Z,97455.56
2023-12-19T14:16:30.488Z,97446.41
2023-12-19T14:21:35.122Z,97442.44
2023-12-19T14:26:41.060Z,97441.63
2023-12-19T14:31:47.066Z,97414.63
2023-12-19T14:36:51.743Z,97425.66
2023-12-19T14:41:55.014Z,97411.75
2023-12-19T14:46:58.225Z,97403.72
2023-12-19T14:52:02.801Z,97393.88
2023-12-19T14:57:06.881Z,97396.06
2023-12-19T15:02:10.077Z,97386.25
2023-12-19T15:07:14.742Z,97384.47
2023-12-19T15:12:17.942Z,97378.22
2023-12-19T15:17:21.864Z,97373.41
2023-12-19T15:22:26.470Z,97365.88
2023-12-19T15:27:29.788Z,97362.34
2023-12-19T15:32:33.050Z,97371.06
2023-12-19T15:37:37.665Z,97368.72
2023-12-19T15:42:41.467Z,97373.78
2023-12-19T15:47:45.444Z,97369.16
2023-12-19T15:52:50.184Z,97352.38
2023-12-19T15:57:53.713Z,97346.38
2023-12-19T16:03:01.101Z,97361.72
2023-12-19T16:08:07.257Z,97357.47
2023-12-19T16:13:10.483Z,97343.81
2023-12-19T16:18:14.104Z,97351.34
2023-12-19T16:23:18.825Z,97343.28
2023-12-19T16:28:22.176Z,97348.72
2023-12-19T16:33:25.854Z,97353.25
2023-12-19T16:38:30.837Z,97355.06
2023-12-19T16:43:34.597Z,97338.97
2023-12-19T16:48:38.290Z,97350.16
2023-12-19T16:53:43.986Z,97344.56
2023-12-19T16:58:47.198Z,97335.59
2023-12-19T17:03:50.653Z,97347.97
2023-12-19T17:08:55.252Z,97352.59
2023-12-19T17:13:59.756Z,97339.28
2023-12-19T17:19:04.239Z,97347.72
2023-12-19T17:24:09.514Z,97334.94
2023-12-19T17:29:12.703Z,97326.09
2023-12-19T17:34:16.187Z,97322.09
2023-12-19T17:39:20.858Z,97319.84
2023-12-19T17:44:24.072Z,97328.16
2023-12-19T17:49:27.393Z,97313.13
2023-12-19T17:54:32.093Z,97322.03
2023-12-19T17:59:35.304Z,97325.09
2023-12-19T18:04:38.586Z,97317.06
2023-12-19T18:09:43.343Z,97302.19
2023-12-19T18:14:46.644Z,97310.66
2023-12-19T18:19:50.010Z,97301.22
2023-12-19T18:24:54.871Z,97297.16
2023-12-19T18:29:58.137Z,97304.94
2023-12-19T18:35:01.570Z,97320.00
2023-12-19T18:40:08.996Z,97308.78
2023-12-19T18:45:12.372Z,97307.69
2023-12-19T18:50:15.958Z,97298.41
2023-12-19T18:55:23.726Z,97300.31
2023-12-19T19:00:27.126Z,97288.72
2023-12-19T19:05:30.396Z,97306.47
2023-12-19T19:10:35.321Z,97305.47
2023-12-19T19:15:38.526Z,97307.53
2023-12-19T19:20:41.924Z,97273.59
2023-12-19T19:25:47.642Z,97278.25
2023-12-19T19:30:51.438Z,97267.19
2023-12-19T19:35:54.738Z,97267.72
2023-12-19T19:41:02.154Z,97256.69
2023-12-19T19:46:07.421Z,97253.66
2023-12-19T19:51:11.453Z,97252.13
2023-12-19T19:56:17.497Z,97232.56
2023-12-19T20:01:20.998Z,97242.66
2023-12-19T20:06:24.317Z,97246.16
2023-12-19T20:11:29.091Z,97252.44
2023-12-19T20:16:32.354Z,97230.13
2023-12-19T20:21:35.621Z,97249.59
2023-12-19T20:26:43.710Z,97220.03
2023-12-19T20:31:47.010Z,97242.66
2023-12-19T20:36:50.408Z,97213.59
2023-12-19T20:41:55.084Z,97230.25
2023-12-19T20:47:00.496Z,97218.53
2023-12-19T20:52:05.855Z,97220.44
2023-12-19T20:57:10.870Z,97217.47
2023-12-19T21:02:14.285Z,97221.09
2023-12-19T21:07:18.247Z,97217.75
2023-12-19T21:12:22.929Z,97212.69
2023-12-19T21:17:26.434Z,97201.50
2023-12-19T21:22:29.774Z,97208.59
2023-12-19T21:27:34.369Z,97215.25
2023-12-19T21:32:41.033Z,97209.00
2023-12-19T21:37:45.656Z,97185.94
2023-12-19T21:42:50.317Z,97169.22
2023-12-19T21:47:53.796Z,97182.00
2023-12-19T21:52:57.090Z,97177.81
2023-12-19T21:58:01.645Z,97174.66
2023-12-19T22:03:05.240Z,97167.69
2023-12-19T22:08:08.635Z,97176.31
2023-12-19T22:13:13.350Z,97156.41
2023-12-19T22:18:16.688Z,97156.38
2023-12-19T22:23:19.886Z,97170.41
2023-12-19T22:28:24.563Z,97143.44
2023-12-19T22:33:28.084Z,97138.88
2023-12-19T22:38:31.494Z,97138.28
2023-12-19T22:43:36.188Z,97130.34
2023-12-19T22:48:39.441Z,97123.56
2023-12-19T22:53:42.721Z,97120.44
2023-12-19T22:58:47.586Z,97126.50
2023-12-19T23:03:51.164Z,97115.47
2023-12-19T23:08:54.444Z,97116.03
2023-12-19T23:13:59.124Z,97102.97
2023-12-19T23:19:02.877Z,97100.13
2023-12-19T23:24:07.129Z,97109.97
2023-12-19T23:29:11.931Z,97088.34
2023-12-19T23:34:15.278Z,97097.38
2023-12-19T23:39:18.866Z,97095.50
2023-12-19T23:44:23.674Z,97076.81
2023-12-19T23:49:27.005Z,97095.75
2023-12-19T23:54:30.245Z,97043.81
2023-12-19T23:59:34.890Z,97059.72
